Time;durP1;ratioP1;P1;durP2;ratioP2;P2;SDS_P1;SDS_P2;PMS_P1;PMS_P2;Temp;Humidity;BMP_temperature;BMP_pressure;BME280_temperature;BME280_humidity;BME280_pressure;Samples;Min_cycle;Max_cycle;Signal;HPM_P1;HPM_P2
2023/05/29 00:01:44;;;;;;;10.80;7.10;;;;;;;11.82;100.00;101035.54;109397;1244;71916;-70
2023/05/29 00:04:12;;;;;;;10.20;6.90;;;;;;;11.78;100.00;101036.31;109493;1244;71082;-71
2023/05/29 00:06:42;;;;;;;10.60;6.70;;;;;;;11.74;100.00;101041.16;109461;1247;73701;-71
2023/05/29 00:09:11;;;;;;;11.30;6.30;;;;;;;11.72;100.00;101034.48;109439;1245;63230;-70
2023/05/29 00:11:40;;;;;;;13.70;6.90;;;;;;;11.71;100.00;101034.59;109511;1244;60795;-71
2023/05/29 00:14:13;;;;;;;15.90;7.60;;;;;;;11.69;100.00;101036.79;109493;1244;72344;-71
2023/05/29 00:16:43;;;;;;;12.40;6.70;;;;;;;11.68;100.00;101037.58;109467;1246;62182;-70
2023/05/29 00:19:13;;;;;;;12.80;7.00;;;;;;;11.62;100.00;101035.34;109518;1244;70692;-71
2023/05/29 00:21:43;;;;;;;10.10;7.10;;;;;;;11.58;100.00;101037.42;109317;1244;75214;-70
2023/05/29 00:24:12;;;;;;;11.60;6.90;;;;;;;11.55;100.00;101036.23;109376;1246;62955;-71
2023/05/29 00:26:41;;;;;;;11.80;7.30;;;;;;;11.52;100.00;101034.69;109519;1244;61007;-71
2023/05/29 00:29:10;;;;;;;11.80;7.10;;;;;;;11.50;100.00;101033.77;109368;1244;73314;-69
2023/05/29 00:31:38;;;;;;;11.60;6.70;;;;;;;11.48;100.00;101032.58;109444;1244;71462;-69
2023/05/29 00:34:07;;;;;;;9.40;6.50;;;;;;;11.47;100.00;101035.10;109430;1244;59714;-70
2023/05/29 00:36:36;;;;;;;12.90;7.10;;;;;;;11.47;100.00;101033.14;109371;1246;62453;-69
2023/05/29 00:39:05;;;;;;;10.60;6.60;;;;;;;11.47;100.00;101031.74;109218;1248;57231;-70
2023/05/29 00:41:34;;;;;;;9.90;6.40;;;;;;;11.48;100.00;101027.83;109320;1244;58868;-70
2023/05/29 00:44:03;;;;;;;11.90;6.80;;;;;;;11.46;100.00;101027.61;109360;1244;72775;-70
2023/05/29 00:46:32;;;;;;;15.30;8.50;;;;;;;11.44;100.00;101028.64;109431;1244;72469;-70
2023/05/29 00:49:04;;;;;;;12.00;8.50;;;;;;;11.43;100.00;101026.09;109235;1244;70147;-70
2023/05/29 00:51:33;;;;;;;13.60;8.10;;;;;;;11.39;100.00;101029.53;109094;1251;63057;-71
2023/05/29 00:54:02;;;;;;;13.30;9.30;;;;;;;11.33;100.00;101030.78;109156;1247;57173;-71
2023/05/29 00:56:31;;;;;;;12.40;7.80;;;;;;;11.35;100.00;101033.29;109187;1244;62283;-71
2023/05/29 00:59:00;;;;;;;12.90;9.00;;;;;;;11.36;100.00;101034.44;109144;1248;63170;-70
2023/05/29 01:01:32;;;;;;;11.50;8.70;;;;;;;11.34;100.00;101035.64;109179;1244;71528;-71
2023/05/29 01:04:03;;;;;;;15.10;9.60;;;;;;;11.30;100.00;101036.80;109262;1247;59789;-70
2023/05/29 01:06:33;;;;;;;15.70;9.80;;;;;;;11.25;100.00;101037.66;109060;1248;63606;-70
2023/05/29 01:09:03;;;;;;;15.90;8.90;;;;;;;11.26;100.00;101038.64;109105;1248;62371;-70
2023/05/29 01:11:57;;;;;;;15.30;9.00;;;;;;;11.22;100.00;101042.56;109221;1244;59572;-70
2023/05/29 01:14:38;;;;;;;13.50;8.50;;;;;;;11.13;100.00;101042.99;109300;1244;65315;-70
2023/05/29 01:17:25;;;;;;;14.30;9.30;;;;;;;11.10;100.00;101041.98;109427;1245;61241;-70
2023/05/29 01:20:16;;;;;;;17.00;9.70;;;;;;;11.04;100.00;101045.08;109429;1248;59025;-70
2023/05/29 01:23:05;;;;;;;14.60;9.40;;;;;;;10.90;100.00;101041.48;109383;1245;73878;-70
2023/05/29 01:25:34;;;;;;;16.10;9.10;;;;;;;10.87;100.00;101036.98;109354;1247;62837;-70
2023/05/29 01:28:06;;;;;;;16.40;9.60;;;;;;;10.85;100.00;101038.33;109310;1248;57759;-70
2023/05/29 01:30:36;;;;;;;12.40;8.60;;;;;;;10.85;100.00;101040.23;109009;1244;72256;-71
2023/05/29 01:33:05;;;;;;;17.50;10.30;;;;;;;10.84;100.00;101042.62;109179;1247;62515;-70
2023/05/29 01:35:34;;;;;;;13.90;9.20;;;;;;;10.83;100.00;101048.39;109242;1246;61129;-70
2023/05/29 01:38:03;;;;;;;16.00;8.80;;;;;;;10.86;100.00;101052.20;109168;1247;63223;-69
2023/05/29 01:40:32;;;;;;;14.10;9.20;;;;;;;10.85;100.00;101050.67;109196;1247;57612;-69
2023/05/29 01:43:02;;;;;;;13.50;9.20;;;;;;;10.77;100.00;101051.59;109124;1244;57474;-69
2023/05/29 01:45:31;;;;;;;15.90;9.40;;;;;;;10.79;100.00;101053.73;109335;1244;62774;-69
2023/05/29 01:48:00;;;;;;;17.90;9.50;;;;;;;10.76;100.00;101055.00;109162;1248;62355;-69
2023/05/29 01:50:29;;;;;;;17.00;9.20;;;;;;;10.74;100.00;101059.79;109568;1241;70079;-70
2023/05/29 01:52:58;;;;;;;15.10;9.30;;;;;;;10.76;100.00;101058.96;109294;1243;326784;-70
2023/05/29 01:55:27;;;;;;;14.40;8.90;;;;;;;10.77;100.00;101062.23;109411;1244;63400;-70
2023/05/29 01:57:56;;;;;;;14.00;9.00;;;;;;;10.77;100.00;101061.32;109298;1248;61635;-70
2023/05/29 02:00:25;;;;;;;12.70;8.80;;;;;;;10.75;100.00;101064.23;109423;1241;63540;-70
2023/05/29 02:02:54;;;;;;;12.30;8.40;;;;;;;10.74;100.00;101066.41;109360;1247;62279;-71
2023/05/29 02:05:23;;;;;;;13.30;8.80;;;;;;;10.72;100.00;101064.98;109568;1243;59954;-69
2023/05/29 02:07:52;;;;;;;17.10;8.80;;;;;;;10.71;100.00;101066.24;109608;1241;74297;-69
2023/05/29 02:10:20;;;;;;;12.30;8.80;;;;;;;10.68;100.00;101068.59;109629;1244;62521;-69
2023/05/29 02:12:50;;;;;;;13.40;7.90;;;;;;;10.61;100.00;101069.90;109690;1241;57679;-70
2023/05/29 02:15:19;;;;;;;13.10;8.20;;;;;;;10.56;100.00;101071.66;109509;1241;73627;-69
2023/05/29 02:17:49;;;;;;;11.20;8.10;;;;;;;10.53;100.00;101072.02;109710;1243;61833;-70
2023/05/29 02:20:18;;;;;;;13.90;9.40;;;;;;;10.53;100.00;101067.66;109622;1241;70259;-70
2023/05/29 02:22:47;;;;;;;14.40;9.00;;;;;;;10.52;100.00;101070.02;109480;1241;74244;-70
2023/05/29 02:25:15;;;;;;;16.50;8.40;;;;;;;10.48;100.00;101073.38;109681;1241;63264;-70
2023/05/29 02:27:44;;;;;;;15.30;8.60;;;;;;;10.44;100.00;101076.11;109741;1241;57718;-70
2023/05/29 02:30:14;;;;;;;14.20;8.50;;;;;;;10.39;100.00;101078.68;109642;1241;72921;-70
2023/05/29 02:32:43;;;;;;;12.90;8.50;;;;;;;10.35;100.00;101077.40;109634;1241;63215;-70
2023/05/29 02:35:17;;;;;;;13.00;8.10;;;;;;;10.32;100.00;101073.05;109619;1241;59283;-70
2023/05/29 02:37:46;;;;;;;11.50;8.10;;;;;;;10.31;100.00;101077.48;109502;1241;62364;-70
2023/05/29 02:40:18;;;;;;;15.20;8.40;;;;;;;10.31;100.00;101085.83;109702;1242;57240;-70
2023/05/29 02:42:47;;;;;;;14.80;8.70;;;;;;;10.34;100.00;101087.23;109527;1241;57168;-70
2023/05/29 02:45:17;;;;;;;15.00;10.10;;;;;;;10.38;100.00;101093.05;109362;1241;62936;-70
2023/05/29 02:47:46;;;;;;;13.70;9.10;;;;;;;10.42;100.00;101095.56;109458;1241;72260;-70
2023/05/29 02:50:14;;;;;;;18.80;9.90;;;;;;;10.44;100.00;101094.77;109633;1241;70707;-70
2023/05/29 02:52:43;;;;;;;15.30;10.20;;;;;;;10.46;100.00;101092.85;109629;1241;63539;-70
2023/05/29 02:55:12;;;;;;;15.00;9.90;;;;;;;10.50;100.00;101094.13;109741;1241;57232;-70
2023/05/29 02:57:41;;;;;;;20.80;9.80;;;;;;;10.55;100.00;101092.28;109620;1241;57202;-71
2023/05/29 03:00:11;;;;;;;16.30;9.40;;;;;;;10.58;100.00;101096.92;109766;1241;62104;-71
2023/05/29 03:02:39;;;;;;;13.90;8.80;;;;;;;10.61;100.00;101101.24;109661;1243;72762;-71
2023/05/29 03:05:09;;;;;;;16.70;9.10;;;;;;;10.62;100.00;101106.06;109530;1241;69849;-71
2023/05/29 03:07:38;;;;;;;12.80;8.80;;;;;;;10.65;100.00;101108.28;109631;1241;73766;-70
2023/05/29 03:10:07;;;;;;;13.10;8.50;;;;;;;10.68;100.00;101108.16;109624;1241;63402;-70
2023/05/29 03:12:36;;;;;;;17.00;9.40;;;;;;;10.70;100.00;101107.13;109710;1241;57346;-69
2023/05/29 03:15:06;;;;;;;17.20;8.90;;;;;;;10.66;100.00;101099.73;109615;1241;62871;-71
2023/05/29 03:17:36;;;;;;;14.80;8.90;;;;;;;10.72;100.00;101107.33;109480;1241;72165;-70
2023/05/29 03:20:07;;;;;;;13.40;9.00;;;;;;;10.74;100.00;101108.08;109517;1241;60458;-70
2023/05/29 03:22:36;;;;;;;16.80;8.80;;;;;;;10.75;100.00;101105.23;109488;1241;72960;-70
2023/05/29 03:25:07;;;;;;;16.70;9.20;;;;;;;10.73;100.00;101106.06;109470;1241;57095;-71
2023/05/29 03:27:36;;;;;;;14.00;9.20;;;;;;;10.71;100.00;101103.58;109451;1241;61331;-70
2023/05/29 03:30:12;;;;;;;15.60;9.00;;;;;;;10.70;100.00;101102.26;109568;1241;65102;-70
2023/05/29 03:32:41;;;;;;;15.90;9.80;;;;;;;10.71;100.00;101102.52;109486;1241;72022;-71
2023/05/29 03:35:09;;;;;;;16.20;9.20;;;;;;;10.71;100.00;101108.61;109739;1241;70796;-71
2023/05/29 03:37:40;;;;;;;17.50;9.40;;;;;;;10.73;100.00;101113.52;109309;1241;74681;-70
2023/05/29 03:40:10;;;;;;;16.20;9.50;;;;;;;10.78;100.00;101115.12;109445;1242;63384;-70
2023/05/29 03:42:39;;;;;;;15.80;9.50;;;;;;;10.82;100.00;101117.80;109363;1241;57679;-71
2023/05/29 03:45:08;;;;;;;16.70;9.60;;;;;;;10.88;100.00;101118.98;109562;1241;62976;-70
2023/05/29 03:47:39;;;;;;;13.90;9.70;;;;;;;10.96;100.00;101118.60;109561;1242;72146;-70
2023/05/29 03:50:08;;;;;;;17.60;9.80;;;;;;;11.04;100.00;101121.21;109634;1241;60182;-70
2023/05/29 03:52:37;;;;;;;19.10;10.20;;;;;;;11.11;100.00;101125.40;109691;1241;72929;-71
2023/05/29 03:55:12;;;;;;;13.40;9.00;;;;;;;11.18;100.00;101130.37;109661;1242;57684;-71
2023/05/29 03:57:42;;;;;;;16.40;9.20;;;;;;;11.24;100.00;101130.14;109588;1241;60601;-70
2023/05/29 04:00:11;;;;;;;22.20;11.30;;;;;;;11.24;100.00;101139.03;109588;1241;73911;-71
2023/05/29 04:02:41;;;;;;;13.90;8.90;;;;;;;11.32;100.00;101142.65;109568;1241;62157;-70
2023/05/29 04:05:10;;;;;;;17.30;9.20;;;;;;;11.42;100.00;101140.92;109692;1241;59180;-70
2023/05/29 04:07:39;;;;;;;13.90;9.40;;;;;;;11.53;100.00;101141.75;109683;1244;73822;-70
2023/05/29 04:10:09;;;;;;;19.90;9.50;;;;;;;11.56;100.00;101143.81;109675;1242;62380;-70
2023/05/29 04:12:39;;;;;;;17.50;8.90;;;;;;;11.55;100.00;101145.41;109497;1241;57710;-70
2023/05/29 04:15:08;;;;;;;15.00;8.60;;;;;;;11.63;100.00;101145.73;109713;1241;72629;-70
2023/05/29 04:17:37;;;;;;;20.30;9.40;;;;;;;11.70;100.00;101139.48;109755;1241;72529;-70
2023/05/29 04:20:08;;;;;;;15.30;9.30;;;;;;;11.76;100.00;101136.98;109735;1241;60292;-71
2023/05/29 04:22:37;;;;;;;16.60;9.10;;;;;;;11.79;100.00;101138.71;109572;1241;63185;-71
2023/05/29 04:25:07;;;;;;;13.60;7.90;;;;;;;11.86;100.00;101132.09;109504;1242;61933;-71
2023/05/29 04:27:37;;;;;;;14.10;8.30;;;;;;;11.93;100.00;101131.06;109635;1242;57466;-71
2023/05/29 04:30:08;;;;;;;12.90;7.90;;;;;;;11.98;100.00;101134.10;109534;1242;73580;-71
2023/05/29 04:32:42;;;;;;;11.90;8.00;;;;;;;12.01;100.00;101135.23;109552;1245;61485;-71
2023/05/29 04:35:11;;;;;;;15.80;9.10;;;;;;;12.05;100.00;101128.52;109469;1241;59983;-70
2023/05/29 04:37:43;;;;;;;13.40;8.30;;;;;;;12.13;100.00;101133.35;109654;1241;63562;-71
2023/05/29 04:40:17;;;;;;;17.30;9.70;;;;;;;12.27;100.00;101134.95;109606;1242;63533;-70
2023/05/29 04:42:46;;;;;;;18.00;9.80;;;;;;;12.38;100.00;101134.13;109384;1243;61147;-71
2023/05/29 04:45:16;;;;;;;13.70;7.80;;;;;;;12.44;100.00;101136.96;109619;1241;62655;-70
2023/05/29 04:47:45;;;;;;;11.30;7.40;;;;;;;12.64;100.00;101132.35;109719;1243;72469;-70
2023/05/29 04:50:14;;;;;;;17.00;8.50;;;;;;;12.70;100.00;101131.91;109600;1241;70829;-71
2023/05/29 04:52:44;;;;;;;14.30;9.10;;;;;;;12.77;100.00;101131.92;109438;1247;63998;-70
2023/05/29 04:55:13;;;;;;;15.30;8.90;;;;;;;12.87;100.00;101134.16;109507;1244;63419;-70
2023/05/29 04:57:43;;;;;;;17.00;9.70;;;;;;;13.07;100.00;101138.39;109506;1243;60814;-70
2023/05/29 05:00:13;;;;;;;12.10;8.00;;;;;;;13.19;100.00;101137.98;109409;1242;74016;-71
2023/05/29 05:02:45;;;;;;;12.80;8.00;;;;;;;13.30;100.00;101138.91;109561;1242;61725;-70
2023/05/29 05:05:14;;;;;;;18.30;9.20;;;;;;;13.36;100.00;101142.89;109511;1243;70537;-70
2023/05/29 05:07:43;;;;;;;15.90;7.80;;;;;;;13.46;100.00;101144.15;109582;1241;74660;-70
2023/05/29 05:10:12;;;;;;;12.40;7.90;;;;;;;13.53;100.00;101142.44;109606;1244;57717;-70
2023/05/29 05:12:41;;;;;;;11.50;7.40;;;;;;;13.60;100.00;101148.15;109575;1242;61654;-70
2023/05/29 05:15:11;;;;;;;15.30;8.60;;;;;;;13.70;100.00;101147.56;109486;1241;74393;-70
2023/05/29 05:17:40;;;;;;;22.50;9.20;;;;;;;13.77;100.00;101149.58;109573;1242;72566;-70
2023/05/29 05:20:11;;;;;;;19.10;7.70;;;;;;;13.87;100.00;101150.56;109687;1241;71192;-70
2023/05/29 05:22:40;;;;;;;18.50;8.50;;;;;;;14.03;100.00;101150.36;109580;1244;74473;-70
2023/05/29 05:25:09;;;;;;;14.90;8.20;;;;;;;14.12;100.00;101149.34;109568;1245;57578;-70
2023/05/29 05:27:38;;;;;;;12.10;7.10;;;;;;;14.23;100.00;101151.91;109548;1244;57222;-71
2023/05/29 05:30:08;;;;;;;17.40;8.60;;;;;;;14.30;100.00;101154.81;109742;1244;72789;-77
2023/05/29 05:32:37;;;;;;;13.70;7.70;;;;;;;14.40;100.00;101155.64;109685;1241;72341;-70
2023/05/29 05:35:10;;;;;;;11.90;8.10;;;;;;;14.57;100.00;101153.92;109577;1244;69048;-64
2023/05/29 05:37:38;;;;;;;14.30;7.80;;;;;;;14.76;100.00;101153.55;109563;1243;73789;-65
2023/05/29 05:40:08;;;;;;;17.70;8.10;;;;;;;14.83;100.00;101159.41;109553;1245;62548;-64
2023/05/29 05:42:42;;;;;;;15.80;7.80;;;;;;;14.89;100.00;101158.09;109583;1242;61791;-65
2023/05/29 05:45:12;;;;;;;14.80;7.80;;;;;;;15.03;100.00;101154.08;109586;1243;63430;-66
2023/05/29 05:47:41;;;;;;;16.40;8.40;;;;;;;15.12;100.00;101151.02;109568;1244;60844;-64
2023/05/29 05:50:10;;;;;;;14.00;7.60;;;;;;;15.26;100.00;101147.38;109596;1241;59953;-65
2023/05/29 05:52:39;;;;;;;17.10;7.80;;;;;;;15.45;100.00;101149.98;109734;1243;62480;-65
2023/05/29 05:55:08;;;;;;;12.20;6.30;;;;;;;15.60;100.00;101149.21;109634;1244;60581;-68
2023/05/29 05:57:39;;;;;;;14.50;7.40;;;;;;;15.77;100.00;101143.44;109578;1243;60806;-66
2023/05/29 06:00:11;;;;;;;12.90;6.90;;;;;;;15.85;100.00;101144.60;109521;1243;74085;-67
2023/05/29 06:02:46;;;;;;;15.40;6.90;;;;;;;15.97;100.00;101147.92;109580;1242;72260;-68
2023/05/29 06:05:25;;;;;;;12.40;5.90;;;;;;;16.19;100.00;101150.44;109478;1243;70030;-67
2023/05/29 06:07:53;;;;;;;15.30;7.00;;;;;;;16.42;100.00;101143.45;109479;1243;74179;-67
2023/05/29 06:10:22;;;;;;;14.20;5.50;;;;;;;16.63;99.75;101141.64;109404;1242;60843;-65
2023/05/29 06:12:52;;;;;;;12.50;6.60;;;;;;;16.70;98.81;101139.98;109485;1245;57949;-66
2023/05/29 06:15:24;;;;;;;12.20;5.70;;;;;;;16.84;99.39;101139.08;109471;1243;63145;-67
2023/05/29 06:17:55;;;;;;;15.20;5.90;;;;;;;17.00;98.10;101136.19;109563;1242;61604;-66
2023/05/29 06:20:25;;;;;;;8.20;4.80;;;;;;;17.18;95.18;101129.45;109549;1242;68665;-67
2023/05/29 06:22:54;;;;;;;12.80;5.90;;;;;;;17.29;91.70;101127.30;109569;1243;64363;-70
2023/05/29 06:25:32;;;;;;;10.80;4.20;;;;;;;17.41;92.08;101122.80;109539;1245;57692;-67
2023/05/29 06:28:04;;;;;;;11.80;4.90;;;;;;;17.56;89.51;101120.88;109658;1243;61193;-67
2023/05/29 06:30:33;;;;;;;8.70;5.00;;;;;;;17.67;88.06;101117.05;109373;1242;63436;-68
2023/05/29 06:33:03;;;;;;;12.70;5.70;;;;;;;17.75;87.43;101118.20;109529;1245;61678;-67
2023/05/29 06:35:32;;;;;;;7.90;4.60;;;;;;;17.85;89.11;101119.20;109514;1245;59554;-67
2023/05/29 06:38:01;;;;;;;7.00;4.00;;;;;;;18.00;86.24;101115.41;109322;1247;72091;-67
2023/05/29 06:40:33;;;;;;;10.50;3.80;;;;;;;18.14;83.89;101114.06;109554;1244;60486;-69
2023/05/29 06:43:02;;;;;;;6.10;3.80;;;;;;;18.29;81.44;101115.41;109542;1243;57172;-68
2023/05/29 06:45:40;;;;;;;7.00;3.80;;;;;;;18.41;80.65;101110.90;109464;1242;72750;-68
2023/05/29 06:48:10;;;;;;;5.90;2.90;;;;;;;18.51;79.32;101109.70;109497;1243;64282;-68
2023/05/29 06:50:43;;;;;;;8.10;3.90;;;;;;;18.67;77.42;101111.11;109223;1243;70137;-68
2023/05/29 06:53:39;;;;;;;8.70;3.90;;;;;;;18.75;78.02;101107.48;109410;1244;63651;-68
2023/05/29 06:56:08;;;;;;;11.00;4.40;;;;;;;18.83;76.58;101112.00;109273;1247;61315;-68
2023/05/29 06:58:37;;;;;;;6.90;3.50;;;;;;;18.93;78.07;101110.61;109187;1247;57294;-68
2023/05/29 07:01:06;;;;;;;8.20;3.80;;;;;;;19.08;77.71;101112.16;109302;1245;62885;-68
2023/05/29 07:03:38;;;;;;;9.50;3.70;;;;;;;19.16;75.55;101113.45;109198;1245;60981;-68
2023/05/29 07:06:07;;;;;;;19.10;8.00;;;;;;;19.26;75.79;101110.05;109275;1245;59960;-73
2023/05/29 07:08:36;;;;;;;10.00;4.50;;;;;;;19.39;68.71;101103.95;109202;1242;64555;-68
2023/05/29 07:11:07;;;;;;;9.30;3.90;;;;;;;19.44;64.74;101107.11;109273;1244;61232;-74
2023/05/29 07:13:35;;;;;;;6.50;3.60;;;;;;;19.57;64.53;101103.38;109424;1242;60880;-66
2023/05/29 07:16:05;;;;;;;8.30;3.60;;;;;;;19.69;64.70;101109.51;109444;1244;72582;-67
2023/05/29 07:18:52;;;;;;;6.50;3.20;;;;;;;19.82;63.30;101110.27;109477;1244;61430;-67
2023/05/29 07:21:21;;;;;;;7.30;3.50;;;;;;;19.86;61.89;101106.84;109513;1245;60117;-67
2023/05/29 07:23:50;;;;;;;10.40;3.70;;;;;;;20.04;62.18;101101.41;109440;1244;72979;-67
2023/05/29 07:26:22;;;;;;;6.50;3.70;;;;;;;20.16;61.02;101099.98;109440;1245;62490;-64
2023/05/29 07:28:52;;;;;;;8.60;3.30;;;;;;;20.24;60.70;101102.67;109555;1245;57571;-65
2023/05/29 07:31:21;;;;;;;6.40;3.60;;;;;;;20.06;59.63;101097.80;109503;1245;62949;-65
2023/05/29 07:33:50;;;;;;;7.50;3.50;;;;;;;20.15;60.02;101096.71;109477;1245;61399;-64
2023/05/29 07:36:21;;;;;;;5.70;3.70;;;;;;;20.22;59.50;101095.36;109447;1244;69672;-65
2023/05/29 07:38:50;;;;;;;6.50;3.70;;;;;;;20.45;59.49;101098.28;109385;1245;63798;-65
2023/05/29 07:41:19;;;;;;;7.10;3.70;;;;;;;20.56;58.63;101094.91;109492;1245;57596;-65
2023/05/29 07:43:55;;;;;;;9.20;3.50;;;;;;;20.66;58.18;101093.05;109491;1245;57621;-64
2023/05/29 07:46:24;;;;;;;10.40;3.40;;;;;;;20.74;57.96;101090.81;109316;1250;63351;-64
2023/05/29 07:49:00;;;;;;;7.30;3.80;;;;;;;20.82;57.27;101089.81;109545;1245;61642;-64
2023/05/29 07:51:29;;;;;;;8.60;3.60;;;;;;;20.91;57.11;101083.61;109568;1245;59267;-64
2023/05/29 07:53:59;;;;;;;5.90;3.40;;;;;;;21.00;57.12;101087.34;109605;1243;72816;-63
2023/05/29 07:56:28;;;;;;;10.60;3.50;;;;;;;20.95;56.84;101081.98;109498;1245;61856;-69
2023/05/29 07:58:57;;;;;;;6.50;3.20;;;;;;;21.06;57.29;101083.92;109328;1244;61128;-65
2023/05/29 08:01:27;;;;;;;10.30;3.40;;;;;;;21.19;56.81;101086.07;109471;1244;73428;-64
2023/05/29 08:03:55;;;;;;;6.90;3.40;;;;;;;21.34;56.12;101078.54;109429;1243;71833;-64
2023/05/29 08:06:27;;;;;;;7.40;3.20;;;;;;;21.50;56.28;101083.69;109465;1243;71458;-64
2023/05/29 08:08:58;;;;;;;7.10;2.80;;;;;;;21.61;54.35;101076.05;109548;1244;74326;-64
2023/05/29 08:11:27;;;;;;;7.30;3.10;;;;;;;21.73;54.76;101072.88;109505;1245;61871;-65
2023/05/29 08:13:56;;;;;;;9.80;2.70;;;;;;;21.86;54.46;101070.15;109544;1245;57551;-66
2023/05/29 08:16:27;;;;;;;7.20;3.10;;;;;;;21.92;53.58;101071.03;109533;1245;62530;-64
2023/05/29 08:18:56;;;;;;;7.40;2.90;;;;;;;22.01;53.69;101073.23;109485;1243;72822;-64
2023/05/29 08:21:25;;;;;;;5.70;2.90;;;;;;;22.06;53.18;101073.73;109580;1244;60221;-64
2023/05/29 08:23:54;;;;;;;6.40;2.80;;;;;;;22.14;53.09;101066.98;109592;1244;62632;-64
2023/05/29 08:26:23;;;;;;;6.30;2.80;;;;;;;22.04;53.43;101060.83;109452;1245;57681;-64
2023/05/29 08:28:52;;;;;;;5.50;3.10;;;;;;;22.20;52.84;101065.21;109534;1243;57548;-64
2023/05/29 08:31:21;;;;;;;6.60;3.10;;;;;;;22.20;52.74;101061.98;109457;1244;72865;-70
2023/05/29 08:33:50;;;;;;;4.30;3.00;;;;;;;22.44;52.32;101057.72;109523;1244;72161;-71
2023/05/29 08:36:22;;;;;;;5.60;2.80;;;;;;;22.41;51.89;101058.61;109465;1244;69996;-64
2023/05/29 08:38:51;;;;;;;6.20;3.30;;;;;;;22.38;52.09;101052.42;109356;1248;64258;-66
2023/05/29 08:41:47;;;;;;;7.50;2.90;;;;;;;22.39;52.20;101050.23;109437;1248;59491;-66
2023/05/29 08:44:21;;;;;;;8.00;2.90;;;;;;;22.52;50.89;101045.52;109630;1244;57159;-71
2023/05/29 08:46:55;;;;;;;7.20;2.70;;;;;;;22.55;50.37;101042.95;109570;1243;62928;-65
2023/05/29 08:49:27;;;;;;;5.50;2.90;;;;;;;22.55;50.56;101038.20;109640;1242;61747;-66
2023/05/29 08:52:11;;;;;;;6.10;3.10;;;;;;;22.67;49.62;101039.58;109452;1244;59246;-67
2023/05/29 08:54:41;;;;;;;4.20;2.50;;;;;;;22.74;49.47;101039.34;109482;1244;62640;-64
2023/05/29 08:57:12;;;;;;;6.20;2.80;;;;;;;22.84;49.86;101035.15;109402;1246;61247;-64
2023/05/29 08:59:45;;;;;;;4.90;2.60;;;;;;;22.91;48.94;101041.55;109586;1241;57117;-64
2023/05/29 09:02:14;;;;;;;5.20;2.80;;;;;;;23.12;48.99;101036.05;109705;1243;72715;-65
2023/05/29 09:04:52;;;;;;;5.40;2.80;;;;;;;23.17;47.76;101034.23;109799;1241;62717;-65
2023/05/29 09:07:21;;;;;;;4.40;2.80;;;;;;;23.15;47.04;101038.64;109612;1241;70292;-65
2023/05/29 09:09:50;;;;;;;4.40;2.70;;;;;;;23.12;46.75;101038.14;109779;1241;74500;-65
2023/05/29 09:12:18;;;;;;;5.40;2.80;;;;;;;23.11;47.05;101031.86;109756;1242;60751;-64
2023/05/29 09:14:48;;;;;;;5.20;2.60;;;;;;;23.36;47.21;101027.58;109708;1242;57678;-65
2023/05/29 09:17:16;;;;;;;6.80;2.70;;;;;;;23.60;46.88;101031.27;109465;1242;73561;-64
2023/05/29 09:19:48;;;;;;;5.50;2.80;;;;;;;23.68;46.24;101021.70;109423;1242;72743;-65
2023/05/29 09:22:17;;;;;;;7.60;3.10;;;;;;;23.89;46.12;101019.33;109651;1244;68796;-67
2023/05/29 09:24:48;;;;;;;6.80;3.50;;;;;;;24.09;45.01;101022.67;109651;1243;63775;-66
2023/05/29 09:27:18;;;;;;;5.20;3.20;;;;;;;24.16;44.52;101022.66;109526;1245;57626;-64
2023/05/29 09:29:47;;;;;;;6.00;3.40;;;;;;;24.20;44.44;101017.19;109353;1242;59850;-65
2023/05/29 09:32:18;;;;;;;8.00;3.20;;;;;;;24.29;44.08;101016.77;109667;1242;74166;-65
2023/05/29 09:34:46;;;;;;;6.50;2.90;;;;;;;24.54;43.51;101015.02;109493;1244;72507;-66
2023/05/29 09:37:21;;;;;;;4.10;2.60;;;;;;;24.72;43.28;101016.33;109677;1242;60067;-66
2023/05/29 09:39:53;;;;;;;4.90;2.90;;;;;;;24.66;42.51;101015.24;109574;1241;73837;-64
2023/05/29 09:42:22;;;;;;;7.30;3.00;;;;;;;24.62;42.33;101014.77;109471;1244;58064;-64
2023/05/29 09:44:54;;;;;;;8.70;2.80;;;;;;;24.75;42.39;101015.27;109392;1241;59588;-64
2023/05/29 09:47:23;;;;;;;4.70;2.60;;;;;;;25.02;42.60;101010.70;109319;1241;63412;-64
2023/05/29 09:49:53;;;;;;;5.80;2.80;;;;;;;25.06;41.71;101015.86;109554;1241;61621;-64
2023/05/29 09:52:22;;;;;;;4.70;2.90;;;;;;;25.25;41.40;101009.75;109519;1243;60807;-66
2023/05/29 09:54:52;;;;;;;4.80;2.90;;;;;;;25.32;41.02;101006.11;109459;1241;73027;-65
2023/05/29 09:57:23;;;;;;;9.90;3.20;;;;;;;25.56;40.38;101001.61;109346;1245;57605;-65
2023/05/29 09:59:53;;;;;;;7.10;3.00;;;;;;;25.50;40.51;101001.89;109492;1241;57776;-66
2023/05/29 10:02:22;;;;;;;5.50;3.10;;;;;;;25.40;40.55;100999.50;109448;1241;73510;-65
2023/05/29 10:04:51;;;;;;;10.10;3.40;;;;;;;25.27;40.62;101000.44;109580;1241;71946;-65
2023/05/29 10:07:31;;;;;;;7.20;2.80;;;;;;;25.24;40.88;101003.05;109604;1241;70147;-65
2023/05/29 10:10:07;;;;;;;5.90;3.10;;;;;;;25.32;41.47;101002.33;109494;1244;74236;-65
2023/05/29 10:12:39;;;;;;;8.10;3.70;;;;;;;25.69;40.94;100993.95;109515;1245;57667;-67
2023/05/29 10:15:16;;;;;;;6.40;3.00;;;;;;;25.61;40.34;100992.48;109559;1244;60388;-66
2023/05/29 10:17:52;;;;;;;8.00;3.50;;;;;;;25.49;41.32;100995.63;109566;1244;65251;-66
2023/05/29 10:20:22;;;;;;;5.70;2.90;;;;;;;25.93;41.09;101003.22;109584;1244;61237;-66
2023/05/29 10:22:55;;;;;;;5.10;2.60;;;;;;;25.88;40.49;101004.13;109489;1242;59266;-65
2023/05/29 10:25:27;;;;;;;6.40;3.10;;;;;;;25.46;40.69;101005.66;109684;1243;64280;-65
2023/05/29 10:27:58;;;;;;;6.00;2.80;;;;;;;25.85;41.05;100996.41;109527;1245;61340;-66
2023/05/29 10:30:45;;;;;;;5.40;2.70;;;;;;;26.13;40.76;100988.61;109448;1244;57202;-65
2023/05/29 10:33:26;;;;;;;5.90;3.10;;;;;;;26.25;39.81;100983.92;109513;1243;63989;-65
2023/05/29 10:36:12;;;;;;;6.20;3.30;;;;;;;26.20;39.85;100982.06;109668;1242;71426;-66
2023/05/29 10:38:45;;;;;;;6.10;3.10;;;;;;;26.33;39.36;100982.64;109555;1243;70830;-66
2023/05/29 10:41:27;;;;;;;6.60;2.90;;;;;;;26.44;39.10;100984.16;109355;1242;73682;-65
2023/05/29 10:44:01;;;;;;;10.10;3.20;;;;;;;26.41;38.86;100982.44;109508;1241;61401;-66
2023/05/29 10:46:48;;;;;;;5.40;2.90;;;;;;;26.33;39.42;100980.65;109454;1241;57663;-66
2023/05/29 10:49:21;;;;;;;6.50;3.30;;;;;;;26.63;38.94;100977.90;109666;1241;63629;-67
2023/05/29 10:51:52;;;;;;;5.70;3.10;;;;;;;26.97;37.65;100971.95;109505;1241;63362;-68
2023/05/29 10:54:26;;;;;;;5.70;3.30;;;;;;;27.66;36.79;100965.52;109322;1241;70363;-68
2023/05/29 10:57:01;;;;;;;4.70;2.90;;;;;;;28.59;35.78;100965.42;109376;1241;64004;-67
2023/05/29 10:59:36;;;;;;;4.30;2.70;;;;;;;28.44;35.41;100969.90;109401;1241;60529;-68
2023/05/29 11:02:06;;;;;;;6.10;3.00;;;;;;;27.75;36.03;100967.65;109221;1241;60884;-68
2023/05/29 11:04:36;;;;;;;8.30;3.00;;;;;;;27.75;35.95;100964.63;109653;1244;64200;-68
2023/05/29 11:07:08;;;;;;;4.60;2.60;;;;;;;27.19;36.14;100964.05;109658;1244;63372;-67
2023/05/29 11:09:39;;;;;;;7.20;2.80;;;;;;;27.27;36.41;100965.92;109501;1244;70154;-68
2023/05/29 11:12:32;;;;;;;6.90;3.00;;;;;;;27.17;36.89;100958.52;109492;1242;74195;-68
2023/05/29 11:15:13;;;;;;;5.50;2.60;;;;;;;27.75;36.48;100954.98;109420;1245;57719;-69
2023/05/29 11:17:46;;;;;;;4.00;2.70;;;;;;;28.03;35.40;100958.34;109508;1245;57151;-69
2023/05/29 11:20:33;;;;;;;5.60;3.10;;;;;;;28.14;34.99;100957.25;109629;1241;62127;-68
2023/05/29 11:23:08;;;;;;;5.50;3.40;;;;;;;28.59;34.76;100947.48;109711;1241;60822;-69
2023/05/29 11:25:37;;;;;;;7.40;2.80;;;;;;;28.95;33.91;100944.02;109411;1245;59239;-68